Brigantine City, New Jersey
Current Conditions -  °F | °C
As of 6:54 AM on Wednesday 28 Jan 2015 (Local Time) from KACY Reporting Station
Clear Clear  
Wind Chill:   Ceiling: Unl
Heat Index: 18°   Visibility: 10mi
Dew Point:   Wind: 14mph
Humidity: 52%   Direction: 310°NW
Pressure: 30.02"   Gusts: NA
Location:  39.4065°N, 74.3772°W
Report Text: KACY 281154Z 31012KT 10SM CLR M08/M16 A3002 RMK AO2 SLP167 70001 T10781161 11067 21078 53023
Loading
Personal Weather Stations






























Interactive Weather Map New forecast layout! Learn more

10-Day Weather Forecast

Advertisements
Track Severe Weather on mobile